Disclaimer

Please do not use the information listed here in-flight or in-navigation, as they are not provided to us by the airports but are provided by volunteers, so they might be outdated.

Search


Regions


Airport information page

Radio informations:
GOIANIA TWR - 118.7 MHz
Automatic Terminal Information Service (ATIS) - 127.675 MHz

Airport informations:
Latitude: 16° 37' 55.32" S
Longitude: 049° 13' 14.47" W
Elevation: 2450 feet - 747 meters
Operating hours: 24 hour operations
Operating agency: Civil government, landing fees and diplomatic clearance may be required
Timezone: UTC-3(-2DT)
Fuel: Jet A1, without icing nhibitor.

100/130 octane gasoline, leaded, MIL-L-5572F (GREEN)

Runway information:
14/32 - 8204 x 148 feet< - >2501 x 45 meters

Recent METARs:
SBGO 211600Z VRB03KT 9999 FEW018 BKN090 27/20 Q1017
SBGO 211700Z 35005KT 9999 FEW020 FEW025TCU BKN090 27/18 Q1016
SBGO 211700Z 35005KT 9999 FEW020 FEW025TCU BKN090 27/18 Q1016

Airport on the map: